<?xml version="1.0" encoding="UTF-8" standalone="no" ?>
<gpx xmlns="http://www.topografix.com/GPX/1/1" xmlns:xsi="http://www.w3.org/2001/XMLSchema-instance" xsi:schemaLocation="http://www.topografix.com/GPX/1/1 http://www.topografix.com/GPX/1/1/gpx.xsd" version="1.1" creator="VisuGPX - https://www.visugpx.com">
  <metadata>
    <name>Visite express du centre historique de Le Faou</name>
    <desc><![CDATA[Superbe petite cité de caractère méritant le détour
 La balade peut etre aisément rallongée si on dispose de plus de temps]]></desc>
  </metadata>
  <trk>
    <name><![CDATA[SityTrail - Visite express du centre historique de Le Faou]]></name>
    <desc><![CDATA[Superbe petite cité de caractère méritant le détour
 La balade peut etre aisément rallongée si on dispose de plus de temps]]></desc>
    <trkseg>
      <trkpt lat="48.29528" lon="-4.1851">
        <ele>1</ele>
        <time>2024-07-17T13:38:22.828Z</time>
      </trkpt>
      <trkpt lat="48.29528" lon="-4.1851">
        <ele>1</ele>
        <time>2024-07-17T13:38:22.828Z</time>
      </trkpt>
      <trkpt lat="48.29529" lon="-4.1851">
        <ele>1</ele>
        <time>2024-07-17T13:39:18.627Z</time>
      </trkpt>
      <trkpt lat="48.29532" lon="-4.18512">
        <ele>1</ele>
        <time>2024-07-17T13:39:23.627Z</time>
      </trkpt>
      <trkpt lat="48.29536" lon="-4.18512">
        <ele>1</ele>
        <time>2024-07-17T13:39:28.259Z</time>
      </trkpt>
      <trkpt lat="48.29539" lon="-4.18513">
        <ele>1</ele>
        <time>2024-07-17T13:39:32.627Z</time>
      </trkpt>
      <trkpt lat="48.29543" lon="-4.18515">
        <ele>2.9</ele>
        <time>2024-07-17T13:39:37.627Z</time>
      </trkpt>
      <trkpt lat="48.29546" lon="-4.18512">
        <ele>2.7</ele>
        <time>2024-07-17T13:40:09.627Z</time>
      </trkpt>
      <trkpt lat="48.29547" lon="-4.18508">
        <ele>2.6</ele>
        <time>2024-07-17T13:40:14.339Z</time>
      </trkpt>
      <trkpt lat="48.29546" lon="-4.185">
        <ele>2.7</ele>
        <time>2024-07-17T13:40:19.060Z</time>
      </trkpt>
      <trkpt lat="48.29546" lon="-4.18494">
        <ele>2.7</ele>
        <time>2024-07-17T13:40:23.260Z</time>
      </trkpt>
      <trkpt lat="48.29547" lon="-4.18487">
        <ele>2.8</ele>
        <time>2024-07-17T13:40:27.627Z</time>
      </trkpt>
      <trkpt lat="48.29548" lon="-4.1848">
        <ele>2.8</ele>
        <time>2024-07-17T13:40:32.554Z</time>
      </trkpt>
      <trkpt lat="48.29547" lon="-4.18472">
        <ele>2.9</ele>
        <time>2024-07-17T13:40:37.300Z</time>
      </trkpt>
      <trkpt lat="48.29548" lon="-4.18466">
        <ele>3</ele>
        <time>2024-07-17T13:40:41.627Z</time>
      </trkpt>
      <trkpt lat="48.29548" lon="-4.1846">
        <ele>3.1</ele>
        <time>2024-07-17T13:40:45.759Z</time>
      </trkpt>
      <trkpt lat="48.29546" lon="-4.18457">
        <ele>2</ele>
        <time>2024-07-17T13:40:50.627Z</time>
      </trkpt>
      <trkpt lat="48.29544" lon="-4.18458">
        <ele>2</ele>
        <time>2024-07-17T13:40:55.627Z</time>
      </trkpt>
      <trkpt lat="48.29547" lon="-4.18453">
        <ele>2</ele>
        <time>2024-07-17T13:41:00.379Z</time>
      </trkpt>
      <trkpt lat="48.29548" lon="-4.18445">
        <ele>2</ele>
        <time>2024-07-17T13:41:04.627Z</time>
      </trkpt>
      <trkpt lat="48.29549" lon="-4.1844">
        <ele>2</ele>
        <time>2024-07-17T13:41:09.317Z</time>
      </trkpt>
      <trkpt lat="48.29551" lon="-4.18433">
        <ele>2</ele>
        <time>2024-07-17T13:41:13.380Z</time>
      </trkpt>
      <trkpt lat="48.29551" lon="-4.18426">
        <ele>3</ele>
        <time>2024-07-17T13:41:17.641Z</time>
      </trkpt>
      <trkpt lat="48.29552" lon="-4.18419">
        <ele>3</ele>
        <time>2024-07-17T13:41:22.627Z</time>
      </trkpt>
      <trkpt lat="48.2955" lon="-4.18414">
        <ele>3</ele>
        <time>2024-07-17T13:41:26.627Z</time>
      </trkpt>
      <trkpt lat="48.29551" lon="-4.18409">
        <ele>3</ele>
        <time>2024-07-17T13:41:31.439Z</time>
      </trkpt>
      <trkpt lat="48.29552" lon="-4.18401">
        <ele>2</ele>
        <time>2024-07-17T13:41:35.801Z</time>
      </trkpt>
      <trkpt lat="48.29553" lon="-4.18393">
        <ele>2</ele>
        <time>2024-07-17T13:41:40.627Z</time>
      </trkpt>
      <trkpt lat="48.29553" lon="-4.18385">
        <ele>2</ele>
        <time>2024-07-17T13:41:45.097Z</time>
      </trkpt>
      <trkpt lat="48.29554" lon="-4.18377">
        <ele>2</ele>
        <time>2024-07-17T13:41:49.141Z</time>
      </trkpt>
      <trkpt lat="48.29553" lon="-4.18371">
        <ele>3</ele>
        <time>2024-07-17T13:41:53.553Z</time>
      </trkpt>
      <trkpt lat="48.29553" lon="-4.18366">
        <ele>3</ele>
        <time>2024-07-17T13:41:57.627Z</time>
      </trkpt>
      <trkpt lat="48.29554" lon="-4.18363">
        <ele>3</ele>
        <time>2024-07-17T13:42:02.627Z</time>
      </trkpt>
      <trkpt lat="48.29554" lon="-4.18357">
        <ele>3</ele>
        <time>2024-07-17T13:42:07.627Z</time>
      </trkpt>
      <trkpt lat="48.29555" lon="-4.18353">
        <ele>3</ele>
        <time>2024-07-17T13:42:11.627Z</time>
      </trkpt>
      <trkpt lat="48.29556" lon="-4.18342">
        <ele>3</ele>
        <time>2024-07-17T13:42:16.627Z</time>
      </trkpt>
      <trkpt lat="48.29556" lon="-4.18334">
        <ele>3</ele>
        <time>2024-07-17T13:42:21.376Z</time>
      </trkpt>
      <trkpt lat="48.29556" lon="-4.18327">
        <ele>3</ele>
        <time>2024-07-17T13:42:25.703Z</time>
      </trkpt>
      <trkpt lat="48.29557" lon="-4.18318">
        <ele>4</ele>
        <time>2024-07-17T13:42:30.500Z</time>
      </trkpt>
      <trkpt lat="48.29557" lon="-4.18312">
        <ele>4</ele>
        <time>2024-07-17T13:42:34.917Z</time>
      </trkpt>
      <trkpt lat="48.29557" lon="-4.18306">
        <ele>4</ele>
        <time>2024-07-17T13:42:39.480Z</time>
      </trkpt>
      <trkpt lat="48.29559" lon="-4.18302">
        <ele>4</ele>
        <time>2024-07-17T13:42:43.626Z</time>
      </trkpt>
      <trkpt lat="48.29559" lon="-4.183">
        <ele>4</ele>
        <time>2024-07-17T13:42:48.626Z</time>
      </trkpt>
      <trkpt lat="48.29558" lon="-4.18289">
        <ele>5</ele>
        <time>2024-07-17T13:42:53.463Z</time>
      </trkpt>
      <trkpt lat="48.29558" lon="-4.18285">
        <ele>5</ele>
        <time>2024-07-17T13:42:57.840Z</time>
      </trkpt>
      <trkpt lat="48.29559" lon="-4.18275">
        <ele>5</ele>
        <time>2024-07-17T13:43:02.626Z</time>
      </trkpt>
      <trkpt lat="48.29559" lon="-4.18266">
        <ele>5</ele>
        <time>2024-07-17T13:43:07.468Z</time>
      </trkpt>
      <trkpt lat="48.29559" lon="-4.18257">
        <ele>6</ele>
        <time>2024-07-17T13:43:12.436Z</time>
      </trkpt>
      <trkpt lat="48.2956" lon="-4.18251">
        <ele>6</ele>
        <time>2024-07-17T13:43:16.941Z</time>
      </trkpt>
      <trkpt lat="48.29558" lon="-4.18248">
        <ele>6</ele>
        <time>2024-07-17T13:43:21.626Z</time>
      </trkpt>
      <trkpt lat="48.29558" lon="-4.18242">
        <ele>6</ele>
        <time>2024-07-17T13:43:26.161Z</time>
      </trkpt>
      <trkpt lat="48.29558" lon="-4.18235">
        <ele>6</ele>
        <time>2024-07-17T13:43:30.626Z</time>
      </trkpt>
      <trkpt lat="48.29561" lon="-4.18234">
        <ele>6</ele>
        <time>2024-07-17T13:43:35.259Z</time>
      </trkpt>
      <trkpt lat="48.29562" lon="-4.18228">
        <ele>6</ele>
        <time>2024-07-17T13:43:39.627Z</time>
      </trkpt>
      <trkpt lat="48.29563" lon="-4.18228">
        <ele>6</ele>
        <time>2024-07-17T13:43:43.860Z</time>
      </trkpt>
      <trkpt lat="48.29563" lon="-4.18219">
        <ele>6</ele>
        <time>2024-07-17T13:43:48.261Z</time>
      </trkpt>
      <trkpt lat="48.29563" lon="-4.18208">
        <ele>6</ele>
        <time>2024-07-17T13:43:52.626Z</time>
      </trkpt>
      <trkpt lat="48.29563" lon="-4.18201">
        <ele>6</ele>
        <time>2024-07-17T13:43:57.440Z</time>
      </trkpt>
      <trkpt lat="48.29563" lon="-4.18192">
        <ele>6</ele>
        <time>2024-07-17T13:44:01.626Z</time>
      </trkpt>
      <trkpt lat="48.29562" lon="-4.18186">
        <ele>6</ele>
        <time>2024-07-17T13:44:06.523Z</time>
      </trkpt>
      <trkpt lat="48.29561" lon="-4.18184">
        <ele>6</ele>
        <time>2024-07-17T13:44:10.626Z</time>
      </trkpt>
      <trkpt lat="48.29559" lon="-4.18185">
        <ele>6</ele>
        <time>2024-07-17T13:44:14.976Z</time>
      </trkpt>
      <trkpt lat="48.29555" lon="-4.18176">
        <ele>6</ele>
        <time>2024-07-17T13:44:19.006Z</time>
      </trkpt>
      <trkpt lat="48.29556" lon="-4.18171">
        <ele>6</ele>
        <time>2024-07-17T13:44:23.626Z</time>
      </trkpt>
      <trkpt lat="48.29556" lon="-4.18165">
        <ele>6</ele>
        <time>2024-07-17T13:44:28.626Z</time>
      </trkpt>
      <trkpt lat="48.29557" lon="-4.18157">
        <ele>6</ele>
        <time>2024-07-17T13:44:33.626Z</time>
      </trkpt>
      <trkpt lat="48.29557" lon="-4.18149">
        <ele>6</ele>
        <time>2024-07-17T13:44:38.626Z</time>
      </trkpt>
      <trkpt lat="48.29558" lon="-4.18143">
        <ele>6</ele>
        <time>2024-07-17T13:44:43.381Z</time>
      </trkpt>
      <trkpt lat="48.29561" lon="-4.18137">
        <ele>6</ele>
        <time>2024-07-17T13:44:47.620Z</time>
      </trkpt>
      <trkpt lat="48.29566" lon="-4.18136">
        <ele>6</ele>
        <time>2024-07-17T13:44:52.017Z</time>
      </trkpt>
      <trkpt lat="48.2957" lon="-4.18136">
        <ele>4</ele>
        <time>2024-07-17T13:44:56.095Z</time>
      </trkpt>
      <trkpt lat="48.29574" lon="-4.18137">
        <ele>4</ele>
        <time>2024-07-17T13:45:00.500Z</time>
      </trkpt>
      <trkpt lat="48.29576" lon="-4.18137">
        <ele>4</ele>
        <time>2024-07-17T13:45:04.626Z</time>
      </trkpt>
      <trkpt lat="48.29575" lon="-4.1814">
        <ele>4</ele>
        <time>2024-07-17T13:46:07.397Z</time>
      </trkpt>
      <trkpt lat="48.29571" lon="-4.18139">
        <ele>4</ele>
        <time>2024-07-17T13:46:11.626Z</time>
      </trkpt>
      <trkpt lat="48.29567" lon="-4.18137">
        <ele>6</ele>
        <time>2024-07-17T13:46:15.626Z</time>
      </trkpt>
      <trkpt lat="48.29566" lon="-4.18138">
        <ele>6</ele>
        <time>2024-07-17T13:46:19.569Z</time>
      </trkpt>
      <trkpt lat="48.29565" lon="-4.18139">
        <ele>6</ele>
        <time>2024-07-17T13:46:28.623Z</time>
      </trkpt>
      <trkpt lat="48.29564" lon="-4.18139">
        <ele>6</ele>
        <time>2024-07-17T13:46:33.626Z</time>
      </trkpt>
      <trkpt lat="48.29562" lon="-4.18139">
        <ele>6</ele>
        <time>2024-07-17T13:46:39.626Z</time>
      </trkpt>
      <trkpt lat="48.29561" lon="-4.18138">
        <ele>6</ele>
        <time>2024-07-17T13:46:43.934Z</time>
      </trkpt>
      <trkpt lat="48.29558" lon="-4.18139">
        <ele>6</ele>
        <time>2024-07-17T13:46:48.003Z</time>
      </trkpt>
      <trkpt lat="48.29555" lon="-4.18139">
        <ele>6</ele>
        <time>2024-07-17T13:46:52.487Z</time>
      </trkpt>
      <trkpt lat="48.29551" lon="-4.18139">
        <ele>6</ele>
        <time>2024-07-17T13:46:55.626Z</time>
      </trkpt>
      <trkpt lat="48.29549" lon="-4.1814">
        <ele>6</ele>
        <time>2024-07-17T13:47:05.442Z</time>
      </trkpt>
      <trkpt lat="48.29548" lon="-4.1814">
        <ele>6</ele>
        <time>2024-07-17T13:47:10.520Z</time>
      </trkpt>
      <trkpt lat="48.2954" lon="-4.18137">
        <ele>6</ele>
        <time>2024-07-17T13:47:14.625Z</time>
      </trkpt>
      <trkpt lat="48.29534" lon="-4.18133">
        <ele>6</ele>
        <time>2024-07-17T13:47:19.560Z</time>
      </trkpt>
      <trkpt lat="48.29529" lon="-4.18131">
        <ele>6</ele>
        <time>2024-07-17T13:47:23.625Z</time>
      </trkpt>
      <trkpt lat="48.29524" lon="-4.18129">
        <ele>6</ele>
        <time>2024-07-17T13:47:28.342Z</time>
      </trkpt>
      <trkpt lat="48.29519" lon="-4.18127">
        <ele>6</ele>
        <time>2024-07-17T13:47:32.625Z</time>
      </trkpt>
      <trkpt lat="48.29515" lon="-4.18126">
        <ele>6</ele>
        <time>2024-07-17T13:47:36.625Z</time>
      </trkpt>
      <trkpt lat="48.2951" lon="-4.18124">
        <ele>6</ele>
        <time>2024-07-17T13:47:41.180Z</time>
      </trkpt>
      <trkpt lat="48.29505" lon="-4.18124">
        <ele>6</ele>
        <time>2024-07-17T13:47:45.625Z</time>
      </trkpt>
      <trkpt lat="48.295" lon="-4.18125">
        <ele>6</ele>
        <time>2024-07-17T13:47:50.626Z</time>
      </trkpt>
      <trkpt lat="48.29496" lon="-4.18122">
        <ele>6</ele>
        <time>2024-07-17T13:47:55.559Z</time>
      </trkpt>
      <trkpt lat="48.29489" lon="-4.18123">
        <ele>6</ele>
        <time>2024-07-17T13:47:59.626Z</time>
      </trkpt>
      <trkpt lat="48.29484" lon="-4.18122">
        <ele>10</ele>
        <time>2024-07-17T13:48:04.632Z</time>
      </trkpt>
      <trkpt lat="48.2948" lon="-4.18117">
        <ele>10</ele>
        <time>2024-07-17T13:48:09.625Z</time>
      </trkpt>
      <trkpt lat="48.29476" lon="-4.18115">
        <ele>10</ele>
        <time>2024-07-17T13:48:14.617Z</time>
      </trkpt>
      <trkpt lat="48.29472" lon="-4.18113">
        <ele>10</ele>
        <time>2024-07-17T13:48:18.765Z</time>
      </trkpt>
      <trkpt lat="48.29468" lon="-4.18109">
        <ele>10</ele>
        <time>2024-07-17T13:48:23.625Z</time>
      </trkpt>
      <trkpt lat="48.29464" lon="-4.18105">
        <ele>10</ele>
        <time>2024-07-17T13:48:28.625Z</time>
      </trkpt>
      <trkpt lat="48.2946" lon="-4.18103">
        <ele>10</ele>
        <time>2024-07-17T13:48:33.299Z</time>
      </trkpt>
      <trkpt lat="48.29456" lon="-4.18099">
        <ele>12</ele>
        <time>2024-07-17T13:48:37.361Z</time>
      </trkpt>
      <trkpt lat="48.29452" lon="-4.18094">
        <ele>12</ele>
        <time>2024-07-17T13:48:41.625Z</time>
      </trkpt>
      <trkpt lat="48.29452" lon="-4.18093">
        <ele>12</ele>
        <time>2024-07-17T13:48:45.625Z</time>
      </trkpt>
      <trkpt lat="48.29447" lon="-4.18088">
        <ele>12</ele>
        <time>2024-07-17T13:49:35.625Z</time>
      </trkpt>
      <trkpt lat="48.29447" lon="-4.18087">
        <ele>12</ele>
        <time>2024-07-17T13:49:40.163Z</time>
      </trkpt>
      <trkpt lat="48.2945" lon="-4.18082">
        <ele>12</ele>
        <time>2024-07-17T13:49:44.625Z</time>
      </trkpt>
      <trkpt lat="48.2945" lon="-4.18069">
        <ele>12</ele>
        <time>2024-07-17T13:49:49.441Z</time>
      </trkpt>
      <trkpt lat="48.29449" lon="-4.18062">
        <ele>12</ele>
        <time>2024-07-17T13:49:54.522Z</time>
      </trkpt>
      <trkpt lat="48.2945" lon="-4.18055">
        <ele>12</ele>
        <time>2024-07-17T13:49:58.559Z</time>
      </trkpt>
      <trkpt lat="48.29453" lon="-4.18049">
        <ele>12</ele>
        <time>2024-07-17T13:50:02.626Z</time>
      </trkpt>
      <trkpt lat="48.29454" lon="-4.18042">
        <ele>12</ele>
        <time>2024-07-17T13:50:07.093Z</time>
      </trkpt>
      <trkpt lat="48.29455" lon="-4.18035">
        <ele>13</ele>
        <time>2024-07-17T13:50:11.395Z</time>
      </trkpt>
      <trkpt lat="48.29456" lon="-4.18027">
        <ele>13</ele>
        <time>2024-07-17T13:50:15.628Z</time>
      </trkpt>
      <trkpt lat="48.29458" lon="-4.1802">
        <ele>13</ele>
        <time>2024-07-17T13:50:20.160Z</time>
      </trkpt>
      <trkpt lat="48.29459" lon="-4.18013">
        <ele>11</ele>
        <time>2024-07-17T13:50:24.334Z</time>
      </trkpt>
      <trkpt lat="48.29459" lon="-4.18006">
        <ele>11</ele>
        <time>2024-07-17T13:50:28.625Z</time>
      </trkpt>
      <trkpt lat="48.29461" lon="-4.17999">
        <ele>11</ele>
        <time>2024-07-17T13:50:32.921Z</time>
      </trkpt>
      <trkpt lat="48.29463" lon="-4.17991">
        <ele>11</ele>
        <time>2024-07-17T13:50:37.553Z</time>
      </trkpt>
      <trkpt lat="48.29463" lon="-4.17984">
        <ele>12</ele>
        <time>2024-07-17T13:50:41.880Z</time>
      </trkpt>
      <trkpt lat="48.29461" lon="-4.17977">
        <ele>12</ele>
        <time>2024-07-17T13:50:46.540Z</time>
      </trkpt>
      <trkpt lat="48.29462" lon="-4.17973">
        <ele>12</ele>
        <time>2024-07-17T13:50:50.625Z</time>
      </trkpt>
      <trkpt lat="48.29463" lon="-4.17971">
        <ele>12</ele>
        <time>2024-07-17T13:50:55.280Z</time>
      </trkpt>
      <trkpt lat="48.29459" lon="-4.17966">
        <ele>12</ele>
        <time>2024-07-17T13:50:59.625Z</time>
      </trkpt>
      <trkpt lat="48.29457" lon="-4.17962">
        <ele>13</ele>
        <time>2024-07-17T13:51:02.625Z</time>
      </trkpt>
      <trkpt lat="48.29456" lon="-4.1796">
        <ele>13</ele>
        <time>2024-07-17T13:51:11.625Z</time>
      </trkpt>
      <trkpt lat="48.29456" lon="-4.17959">
        <ele>13</ele>
        <time>2024-07-17T13:51:36.625Z</time>
      </trkpt>
      <trkpt lat="48.29454" lon="-4.17957">
        <ele>13</ele>
        <time>2024-07-17T13:51:40.625Z</time>
      </trkpt>
      <trkpt lat="48.2945" lon="-4.1796">
        <ele>13</ele>
        <time>2024-07-17T13:51:45.625Z</time>
      </trkpt>
      <trkpt lat="48.29445" lon="-4.1796">
        <ele>13</ele>
        <time>2024-07-17T13:51:50.100Z</time>
      </trkpt>
      <trkpt lat="48.29444" lon="-4.1796">
        <ele>13</ele>
        <time>2024-07-17T13:51:51.625Z</time>
      </trkpt>
      <trkpt lat="48.29436" lon="-4.17963">
        <ele>13</ele>
        <time>2024-07-17T13:52:00.482Z</time>
      </trkpt>
      <trkpt lat="48.29431" lon="-4.17965">
        <ele>13</ele>
        <time>2024-07-17T13:52:04.625Z</time>
      </trkpt>
      <trkpt lat="48.29427" lon="-4.17967">
        <ele>14</ele>
        <time>2024-07-17T13:52:08.718Z</time>
      </trkpt>
      <trkpt lat="48.29421" lon="-4.17964">
        <ele>14</ele>
        <time>2024-07-17T13:52:13.260Z</time>
      </trkpt>
      <trkpt lat="48.29417" lon="-4.17961">
        <ele>14</ele>
        <time>2024-07-17T13:52:17.560Z</time>
      </trkpt>
      <trkpt lat="48.29412" lon="-4.17956">
        <ele>13</ele>
        <time>2024-07-17T13:52:21.625Z</time>
      </trkpt>
      <trkpt lat="48.29409" lon="-4.17959">
        <ele>14</ele>
        <time>2024-07-17T13:52:26.315Z</time>
      </trkpt>
      <trkpt lat="48.29406" lon="-4.17963">
        <ele>14</ele>
        <time>2024-07-17T13:52:30.624Z</time>
      </trkpt>
      <trkpt lat="48.29409" lon="-4.17955">
        <ele>13</ele>
        <time>2024-07-17T14:03:13.624Z</time>
      </trkpt>
      <trkpt lat="48.29409" lon="-4.17955">
        <ele>13</ele>
        <time>2024-07-17T14:03:17.959Z</time>
      </trkpt>
      <trkpt lat="48.29409" lon="-4.17958">
        <ele>14</ele>
        <time>2024-07-17T14:03:22.623Z</time>
      </trkpt>
      <trkpt lat="48.29414" lon="-4.17968">
        <ele>14</ele>
        <time>2024-07-17T14:03:27.626Z</time>
      </trkpt>
      <trkpt lat="48.29416" lon="-4.1797">
        <ele>14</ele>
        <time>2024-07-17T14:03:33.362Z</time>
      </trkpt>
      <trkpt lat="48.29416" lon="-4.17971">
        <ele>14</ele>
        <time>2024-07-17T14:03:38.623Z</time>
      </trkpt>
      <trkpt lat="48.29414" lon="-4.17971">
        <ele>14</ele>
        <time>2024-07-17T14:03:43.623Z</time>
      </trkpt>
      <trkpt lat="48.29409" lon="-4.17968">
        <ele>14</ele>
        <time>2024-07-17T14:03:48.385Z</time>
      </trkpt>
      <trkpt lat="48.29405" lon="-4.1796">
        <ele>14</ele>
        <time>2024-07-17T14:03:52.464Z</time>
      </trkpt>
      <trkpt lat="48.29405" lon="-4.17956">
        <ele>13</ele>
        <time>2024-07-17T14:12:29.376Z</time>
      </trkpt>
      <trkpt lat="48.29402" lon="-4.17951">
        <ele>13</ele>
        <time>2024-07-17T14:12:34.001Z</time>
      </trkpt>
      <trkpt lat="48.294" lon="-4.17951">
        <ele>13</ele>
        <time>2024-07-17T14:12:35.298Z</time>
      </trkpt>
      <trkpt lat="48.29395" lon="-4.17944">
        <ele>13</ele>
        <time>2024-07-17T14:12:44.342Z</time>
      </trkpt>
      <trkpt lat="48.29389" lon="-4.17942">
        <ele>13</ele>
        <time>2024-07-17T14:12:48.786Z</time>
      </trkpt>
      <trkpt lat="48.29384" lon="-4.17939">
        <ele>13</ele>
        <time>2024-07-17T14:12:53.180Z</time>
      </trkpt>
      <trkpt lat="48.29378" lon="-4.17936">
        <ele>13</ele>
        <time>2024-07-17T14:12:57.560Z</time>
      </trkpt>
      <trkpt lat="48.29373" lon="-4.17933">
        <ele>13</ele>
        <time>2024-07-17T14:13:01.996Z</time>
      </trkpt>
      <trkpt lat="48.2937" lon="-4.17925">
        <ele>13</ele>
        <time>2024-07-17T14:13:06.102Z</time>
      </trkpt>
      <trkpt lat="48.29364" lon="-4.17925">
        <ele>13</ele>
        <time>2024-07-17T14:13:10.621Z</time>
      </trkpt>
      <trkpt lat="48.29359" lon="-4.17933">
        <ele>13</ele>
        <time>2024-07-17T14:13:15.633Z</time>
      </trkpt>
      <trkpt lat="48.29354" lon="-4.17938">
        <ele>13</ele>
        <time>2024-07-17T14:13:20.621Z</time>
      </trkpt>
      <trkpt lat="48.29349" lon="-4.17943">
        <ele>13</ele>
        <time>2024-07-17T14:13:25.276Z</time>
      </trkpt>
      <trkpt lat="48.29344" lon="-4.17947">
        <ele>14</ele>
        <time>2024-07-17T14:13:29.580Z</time>
      </trkpt>
      <trkpt lat="48.29339" lon="-4.17946">
        <ele>14</ele>
        <time>2024-07-17T14:13:33.623Z</time>
      </trkpt>
      <trkpt lat="48.29335" lon="-4.1794">
        <ele>14</ele>
        <time>2024-07-17T14:13:38.120Z</time>
      </trkpt>
      <trkpt lat="48.29333" lon="-4.17931">
        <ele>14</ele>
        <time>2024-07-17T14:13:42.621Z</time>
      </trkpt>
      <trkpt lat="48.29335" lon="-4.17922">
        <ele>14</ele>
        <time>2024-07-17T14:13:47.600Z</time>
      </trkpt>
      <trkpt lat="48.29337" lon="-4.17915">
        <ele>14</ele>
        <time>2024-07-17T14:13:52.099Z</time>
      </trkpt>
      <trkpt lat="48.2934" lon="-4.17908">
        <ele>14</ele>
        <time>2024-07-17T14:13:56.501Z</time>
      </trkpt>
      <trkpt lat="48.29343" lon="-4.17902">
        <ele>13</ele>
        <time>2024-07-17T14:14:00.538Z</time>
      </trkpt>
      <trkpt lat="48.29346" lon="-4.17896">
        <ele>13</ele>
        <time>2024-07-17T14:14:05.154Z</time>
      </trkpt>
      <trkpt lat="48.29347" lon="-4.17887">
        <ele>13</ele>
        <time>2024-07-17T14:14:09.574Z</time>
      </trkpt>
      <trkpt lat="48.29348" lon="-4.17882">
        <ele>13</ele>
        <time>2024-07-17T14:14:13.621Z</time>
      </trkpt>
      <trkpt lat="48.29348" lon="-4.17874">
        <ele>12</ele>
        <time>2024-07-17T14:14:18.500Z</time>
      </trkpt>
      <trkpt lat="48.29347" lon="-4.17867">
        <ele>13</ele>
        <time>2024-07-17T14:14:22.621Z</time>
      </trkpt>
      <trkpt lat="48.29342" lon="-4.17862">
        <ele>13</ele>
        <time>2024-07-17T14:14:27.539Z</time>
      </trkpt>
      <trkpt lat="48.2934" lon="-4.17859">
        <ele>13</ele>
        <time>2024-07-17T14:14:31.574Z</time>
      </trkpt>
      <trkpt lat="48.29335" lon="-4.17856">
        <ele>13</ele>
        <time>2024-07-17T14:14:36.079Z</time>
      </trkpt>
      <trkpt lat="48.29331" lon="-4.17851">
        <ele>13</ele>
        <time>2024-07-17T14:14:40.621Z</time>
      </trkpt>
      <trkpt lat="48.29327" lon="-4.17846">
        <ele>13</ele>
        <time>2024-07-17T14:14:44.819Z</time>
      </trkpt>
      <trkpt lat="48.29323" lon="-4.17841">
        <ele>13</ele>
        <time>2024-07-17T14:14:49.402Z</time>
      </trkpt>
      <trkpt lat="48.29318" lon="-4.1784">
        <ele>14</ele>
        <time>2024-07-17T14:14:53.482Z</time>
      </trkpt>
      <trkpt lat="48.29314" lon="-4.17839">
        <ele>14</ele>
        <time>2024-07-17T14:14:57.621Z</time>
      </trkpt>
      <trkpt lat="48.29309" lon="-4.17839">
        <ele>14</ele>
        <time>2024-07-17T14:15:02.175Z</time>
      </trkpt>
      <trkpt lat="48.29304" lon="-4.17838">
        <ele>14</ele>
        <time>2024-07-17T14:15:06.621Z</time>
      </trkpt>
      <trkpt lat="48.293" lon="-4.1784">
        <ele>14</ele>
        <time>2024-07-17T14:15:11.299Z</time>
      </trkpt>
      <trkpt lat="48.29295" lon="-4.17843">
        <ele>14</ele>
        <time>2024-07-17T14:15:15.622Z</time>
      </trkpt>
      <trkpt lat="48.2929" lon="-4.17845">
        <ele>15</ele>
        <time>2024-07-17T14:15:20.080Z</time>
      </trkpt>
      <trkpt lat="48.29285" lon="-4.17847">
        <ele>15</ele>
        <time>2024-07-17T14:15:24.116Z</time>
      </trkpt>
      <trkpt lat="48.2928" lon="-4.17851">
        <ele>15</ele>
        <time>2024-07-17T14:15:28.399Z</time>
      </trkpt>
      <trkpt lat="48.29275" lon="-4.1785">
        <ele>15</ele>
        <time>2024-07-17T14:15:32.435Z</time>
      </trkpt>
      <trkpt lat="48.2927" lon="-4.17848">
        <ele>15</ele>
        <time>2024-07-17T14:15:36.956Z</time>
      </trkpt>
      <trkpt lat="48.29265" lon="-4.1785">
        <ele>15</ele>
        <time>2024-07-17T14:15:41.422Z</time>
      </trkpt>
      <trkpt lat="48.29259" lon="-4.17853">
        <ele>16</ele>
        <time>2024-07-17T14:15:45.816Z</time>
      </trkpt>
      <trkpt lat="48.29254" lon="-4.17853">
        <ele>16</ele>
        <time>2024-07-17T14:15:50.279Z</time>
      </trkpt>
      <trkpt lat="48.29249" lon="-4.17851">
        <ele>16</ele>
        <time>2024-07-17T14:15:54.620Z</time>
      </trkpt>
      <trkpt lat="48.29244" lon="-4.17846">
        <ele>15</ele>
        <time>2024-07-17T14:15:59.214Z</time>
      </trkpt>
      <trkpt lat="48.29244" lon="-4.17839">
        <ele>15</ele>
        <time>2024-07-17T14:16:03.620Z</time>
      </trkpt>
      <trkpt lat="48.29245" lon="-4.17832">
        <ele>15</ele>
        <time>2024-07-17T14:16:08.100Z</time>
      </trkpt>
      <trkpt lat="48.29247" lon="-4.17822">
        <ele>15</ele>
        <time>2024-07-17T14:16:12.620Z</time>
      </trkpt>
      <trkpt lat="48.29249" lon="-4.17815">
        <ele>14</ele>
        <time>2024-07-17T14:16:17.076Z</time>
      </trkpt>
      <trkpt lat="48.2925" lon="-4.17807">
        <ele>14</ele>
        <time>2024-07-17T14:16:21.555Z</time>
      </trkpt>
      <trkpt lat="48.29251" lon="-4.17801">
        <ele>14</ele>
        <time>2024-07-17T14:16:25.865Z</time>
      </trkpt>
      <trkpt lat="48.29255" lon="-4.17793">
        <ele>14</ele>
        <time>2024-07-17T14:16:30.600Z</time>
      </trkpt>
      <trkpt lat="48.29256" lon="-4.17785">
        <ele>14</ele>
        <time>2024-07-17T14:16:35.534Z</time>
      </trkpt>
      <trkpt lat="48.29257" lon="-4.17778">
        <ele>14</ele>
        <time>2024-07-17T14:16:39.620Z</time>
      </trkpt>
      <trkpt lat="48.29258" lon="-4.17771">
        <ele>14</ele>
        <time>2024-07-17T14:16:44.255Z</time>
      </trkpt>
      <trkpt lat="48.29259" lon="-4.17766">
        <ele>14</ele>
        <time>2024-07-17T14:16:48.334Z</time>
      </trkpt>
      <trkpt lat="48.29262" lon="-4.17759">
        <ele>14</ele>
        <time>2024-07-17T14:16:52.797Z</time>
      </trkpt>
      <trkpt lat="48.29262" lon="-4.17752">
        <ele>14</ele>
        <time>2024-07-17T14:16:57.295Z</time>
      </trkpt>
      <trkpt lat="48.29262" lon="-4.17744">
        <ele>14</ele>
        <time>2024-07-17T14:17:01.340Z</time>
      </trkpt>
      <trkpt lat="48.29262" lon="-4.17738">
        <ele>14</ele>
        <time>2024-07-17T14:17:05.896Z</time>
      </trkpt>
      <trkpt lat="48.29261" lon="-4.1773">
        <ele>14</ele>
        <time>2024-07-17T14:17:10.454Z</time>
      </trkpt>
      <trkpt lat="48.29259" lon="-4.17725">
        <ele>14</ele>
        <time>2024-07-17T14:17:14.620Z</time>
      </trkpt>
      <trkpt lat="48.29255" lon="-4.17718">
        <ele>14</ele>
        <time>2024-07-17T14:17:19.457Z</time>
      </trkpt>
      <trkpt lat="48.29254" lon="-4.17712">
        <ele>14</ele>
        <time>2024-07-17T14:17:23.929Z</time>
      </trkpt>
      <trkpt lat="48.29251" lon="-4.17704">
        <ele>14</ele>
        <time>2024-07-17T14:17:28.620Z</time>
      </trkpt>
      <trkpt lat="48.29249" lon="-4.17699">
        <ele>14</ele>
        <time>2024-07-17T14:17:32.838Z</time>
      </trkpt>
      <trkpt lat="48.29246" lon="-4.17691">
        <ele>14</ele>
        <time>2024-07-17T14:17:37.617Z</time>
      </trkpt>
      <trkpt lat="48.29245" lon="-4.17684">
        <ele>14</ele>
        <time>2024-07-17T14:17:42.037Z</time>
      </trkpt>
      <trkpt lat="48.29244" lon="-4.17674">
        <ele>15</ele>
        <time>2024-07-17T14:17:46.620Z</time>
      </trkpt>
      <trkpt lat="48.29246" lon="-4.17668">
        <ele>15</ele>
        <time>2024-07-17T14:17:51.177Z</time>
      </trkpt>
      <trkpt lat="48.29248" lon="-4.17659">
        <ele>15</ele>
        <time>2024-07-17T14:17:55.284Z</time>
      </trkpt>
      <trkpt lat="48.29251" lon="-4.17655">
        <ele>15</ele>
        <time>2024-07-17T14:17:59.601Z</time>
      </trkpt>
      <trkpt lat="48.29254" lon="-4.17648">
        <ele>15</ele>
        <time>2024-07-17T14:18:04.037Z</time>
      </trkpt>
      <trkpt lat="48.29257" lon="-4.17642">
        <ele>15</ele>
        <time>2024-07-17T14:18:08.620Z</time>
      </trkpt>
      <trkpt lat="48.29261" lon="-4.17636">
        <ele>15</ele>
        <time>2024-07-17T14:18:13.620Z</time>
      </trkpt>
      <trkpt lat="48.29265" lon="-4.17629">
        <ele>14</ele>
        <time>2024-07-17T14:18:18.416Z</time>
      </trkpt>
      <trkpt lat="48.29268" lon="-4.17624">
        <ele>14</ele>
        <time>2024-07-17T14:18:22.898Z</time>
      </trkpt>
      <trkpt lat="48.29272" lon="-4.17619">
        <ele>14</ele>
        <time>2024-07-17T14:18:27.646Z</time>
      </trkpt>
      <trkpt lat="48.29277" lon="-4.17616">
        <ele>14</ele>
        <time>2024-07-17T14:18:32.620Z</time>
      </trkpt>
      <trkpt lat="48.29283" lon="-4.17613">
        <ele>14</ele>
        <time>2024-07-17T14:18:37.259Z</time>
      </trkpt>
      <trkpt lat="48.29287" lon="-4.17606">
        <ele>14</ele>
        <time>2024-07-17T14:18:41.620Z</time>
      </trkpt>
      <trkpt lat="48.29288" lon="-4.17599">
        <ele>14</ele>
        <time>2024-07-17T14:18:46.620Z</time>
      </trkpt>
      <trkpt lat="48.29292" lon="-4.17602">
        <ele>13</ele>
        <time>2024-07-17T14:18:51.340Z</time>
      </trkpt>
      <trkpt lat="48.29294" lon="-4.17607">
        <ele>13</ele>
        <time>2024-07-17T14:18:55.620Z</time>
      </trkpt>
      <trkpt lat="48.29295" lon="-4.17613">
        <ele>13</ele>
        <time>2024-07-17T14:19:00.009Z</time>
      </trkpt>
      <trkpt lat="48.29301" lon="-4.17621">
        <ele>13</ele>
        <time>2024-07-17T14:19:04.516Z</time>
      </trkpt>
      <trkpt lat="48.29304" lon="-4.17626">
        <ele>13</ele>
        <time>2024-07-17T14:19:08.834Z</time>
      </trkpt>
      <trkpt lat="48.29308" lon="-4.17633">
        <ele>13</ele>
        <time>2024-07-17T14:19:13.494Z</time>
      </trkpt>
      <trkpt lat="48.29312" lon="-4.17639">
        <ele>13</ele>
        <time>2024-07-17T14:19:17.620Z</time>
      </trkpt>
      <trkpt lat="48.29315" lon="-4.17646">
        <ele>13</ele>
        <time>2024-07-17T14:19:22.181Z</time>
      </trkpt>
      <trkpt lat="48.29318" lon="-4.17652">
        <ele>13</ele>
        <time>2024-07-17T14:19:26.202Z</time>
      </trkpt>
      <trkpt lat="48.29321" lon="-4.17659">
        <ele>11</ele>
        <time>2024-07-17T14:19:30.536Z</time>
      </trkpt>
      <trkpt lat="48.29324" lon="-4.17664">
        <ele>11</ele>
        <time>2024-07-17T14:19:34.620Z</time>
      </trkpt>
      <trkpt lat="48.29326" lon="-4.17671">
        <ele>11</ele>
        <time>2024-07-17T14:19:39.645Z</time>
      </trkpt>
      <trkpt lat="48.2933" lon="-4.17678">
        <ele>11</ele>
        <time>2024-07-17T14:19:44.620Z</time>
      </trkpt>
      <trkpt lat="48.29333" lon="-4.17684">
        <ele>11</ele>
        <time>2024-07-17T14:19:49.440Z</time>
      </trkpt>
      <trkpt lat="48.29336" lon="-4.1769">
        <ele>11</ele>
        <time>2024-07-17T14:19:53.799Z</time>
      </trkpt>
      <trkpt lat="48.2934" lon="-4.17697">
        <ele>11</ele>
        <time>2024-07-17T14:19:58.313Z</time>
      </trkpt>
      <trkpt lat="48.29341" lon="-4.17705">
        <ele>11</ele>
        <time>2024-07-17T14:20:02.620Z</time>
      </trkpt>
      <trkpt lat="48.29345" lon="-4.17712">
        <ele>11</ele>
        <time>2024-07-17T14:20:07.334Z</time>
      </trkpt>
      <trkpt lat="48.29347" lon="-4.17719">
        <ele>10</ele>
        <time>2024-07-17T14:20:11.620Z</time>
      </trkpt>
      <trkpt lat="48.29352" lon="-4.17723">
        <ele>10</ele>
        <time>2024-07-17T14:20:16.620Z</time>
      </trkpt>
      <trkpt lat="48.29357" lon="-4.17723">
        <ele>10</ele>
        <time>2024-07-17T14:20:21.295Z</time>
      </trkpt>
      <trkpt lat="48.29363" lon="-4.17722">
        <ele>10</ele>
        <time>2024-07-17T14:20:25.460Z</time>
      </trkpt>
      <trkpt lat="48.29367" lon="-4.17724">
        <ele>10</ele>
        <time>2024-07-17T14:20:30Z</time>
      </trkpt>
      <trkpt lat="48.29371" lon="-4.17725">
        <ele>10</ele>
        <time>2024-07-17T14:20:33.620Z</time>
      </trkpt>
      <trkpt lat="48.29377" lon="-4.17731">
        <ele>9</ele>
        <time>2024-07-17T14:20:42.025Z</time>
      </trkpt>
      <trkpt lat="48.29384" lon="-4.17733">
        <ele>9</ele>
        <time>2024-07-17T14:20:46.496Z</time>
      </trkpt>
      <trkpt lat="48.29389" lon="-4.17733">
        <ele>9</ele>
        <time>2024-07-17T14:20:50.628Z</time>
      </trkpt>
      <trkpt lat="48.29395" lon="-4.17731">
        <ele>9</ele>
        <time>2024-07-17T14:20:55.344Z</time>
      </trkpt>
      <trkpt lat="48.29397" lon="-4.17733">
        <ele>9</ele>
        <time>2024-07-17T14:20:59.620Z</time>
      </trkpt>
      <trkpt lat="48.294" lon="-4.17736">
        <ele>9</ele>
        <time>2024-07-17T14:21:04.620Z</time>
      </trkpt>
      <trkpt lat="48.29402" lon="-4.17739">
        <ele>9</ele>
        <time>2024-07-17T14:21:08.839Z</time>
      </trkpt>
      <trkpt lat="48.29406" lon="-4.17751">
        <ele>9</ele>
        <time>2024-07-17T14:21:13.243Z</time>
      </trkpt>
      <trkpt lat="48.29407" lon="-4.17759">
        <ele>9</ele>
        <time>2024-07-17T14:21:17.621Z</time>
      </trkpt>
      <trkpt lat="48.29408" lon="-4.17765">
        <ele>9</ele>
        <time>2024-07-17T14:21:22.200Z</time>
      </trkpt>
      <trkpt lat="48.29411" lon="-4.17773">
        <ele>9</ele>
        <time>2024-07-17T14:21:26.264Z</time>
      </trkpt>
      <trkpt lat="48.29414" lon="-4.1778">
        <ele>9</ele>
        <time>2024-07-17T14:21:30.620Z</time>
      </trkpt>
      <trkpt lat="48.29418" lon="-4.17785">
        <ele>9</ele>
        <time>2024-07-17T14:21:35.581Z</time>
      </trkpt>
      <trkpt lat="48.29419" lon="-4.17785">
        <ele>9</ele>
        <time>2024-07-17T14:21:36.049Z</time>
      </trkpt>
      <trkpt lat="48.29421" lon="-4.17787">
        <ele>9</ele>
        <time>2024-07-17T14:21:45.186Z</time>
      </trkpt>
      <trkpt lat="48.29424" lon="-4.17798">
        <ele>9</ele>
        <time>2024-07-17T14:21:49.620Z</time>
      </trkpt>
      <trkpt lat="48.29428" lon="-4.17807">
        <ele>9</ele>
        <time>2024-07-17T14:21:54.234Z</time>
      </trkpt>
      <trkpt lat="48.29431" lon="-4.17813">
        <ele>9</ele>
        <time>2024-07-17T14:21:58.619Z</time>
      </trkpt>
      <trkpt lat="48.29432" lon="-4.17821">
        <ele>9</ele>
        <time>2024-07-17T14:22:02.619Z</time>
      </trkpt>
      <trkpt lat="48.29431" lon="-4.17828">
        <ele>9</ele>
        <time>2024-07-17T14:22:07.140Z</time>
      </trkpt>
      <trkpt lat="48.29427" lon="-4.17835">
        <ele>10</ele>
        <time>2024-07-17T14:24:36.619Z</time>
      </trkpt>
      <trkpt lat="48.29426" lon="-4.17835">
        <ele>10</ele>
        <time>2024-07-17T14:24:41.620Z</time>
      </trkpt>
      <trkpt lat="48.29424" lon="-4.17836">
        <ele>10</ele>
        <time>2024-07-17T14:24:46.601Z</time>
      </trkpt>
      <trkpt lat="48.29424" lon="-4.17844">
        <ele>10</ele>
        <time>2024-07-17T14:24:51.241Z</time>
      </trkpt>
      <trkpt lat="48.29424" lon="-4.17851">
        <ele>11</ele>
        <time>2024-07-17T14:24:55.619Z</time>
      </trkpt>
      <trkpt lat="48.29426" lon="-4.17857">
        <ele>11</ele>
        <time>2024-07-17T14:25:00.102Z</time>
      </trkpt>
      <trkpt lat="48.29429" lon="-4.17864">
        <ele>11</ele>
        <time>2024-07-17T14:25:04.620Z</time>
      </trkpt>
      <trkpt lat="48.29433" lon="-4.1787">
        <ele>10</ele>
        <time>2024-07-17T14:25:09.239Z</time>
      </trkpt>
      <trkpt lat="48.29435" lon="-4.17874">
        <ele>10</ele>
        <time>2024-07-17T14:25:13.192Z</time>
      </trkpt>
      <trkpt lat="48.29437" lon="-4.1788">
        <ele>11</ele>
        <time>2024-07-17T14:25:17.597Z</time>
      </trkpt>
      <trkpt lat="48.29441" lon="-4.17888">
        <ele>11</ele>
        <time>2024-07-17T14:25:21.973Z</time>
      </trkpt>
      <trkpt lat="48.29442" lon="-4.1789">
        <ele>11</ele>
        <time>2024-07-17T14:25:23.056Z</time>
      </trkpt>
      <trkpt lat="48.29445" lon="-4.17905">
        <ele>12</ele>
        <time>2024-07-17T14:25:31.842Z</time>
      </trkpt>
      <trkpt lat="48.29448" lon="-4.1791">
        <ele>12</ele>
        <time>2024-07-17T14:25:35.943Z</time>
      </trkpt>
      <trkpt lat="48.29447" lon="-4.17911">
        <ele>12</ele>
        <time>2024-07-17T14:25:40.619Z</time>
      </trkpt>
      <trkpt lat="48.29448" lon="-4.17915">
        <ele>12</ele>
        <time>2024-07-17T14:25:45.196Z</time>
      </trkpt>
      <trkpt lat="48.2945" lon="-4.17922">
        <ele>12</ele>
        <time>2024-07-17T14:25:49.619Z</time>
      </trkpt>
      <trkpt lat="48.2945" lon="-4.17928">
        <ele>12</ele>
        <time>2024-07-17T14:25:54.247Z</time>
      </trkpt>
      <trkpt lat="48.29451" lon="-4.1794">
        <ele>13</ele>
        <time>2024-07-17T14:26:02.619Z</time>
      </trkpt>
      <trkpt lat="48.2945" lon="-4.17943">
        <ele>13</ele>
        <time>2024-07-17T14:26:07.622Z</time>
      </trkpt>
      <trkpt lat="48.29448" lon="-4.17945">
        <ele>13</ele>
        <time>2024-07-17T14:26:12.619Z</time>
      </trkpt>
      <trkpt lat="48.29447" lon="-4.17945">
        <ele>13</ele>
        <time>2024-07-17T14:26:17.235Z</time>
      </trkpt>
      <trkpt lat="48.29446" lon="-4.17948">
        <ele>13</ele>
        <time>2024-07-17T14:26:21.619Z</time>
      </trkpt>
      <trkpt lat="48.29446" lon="-4.17949">
        <ele>13</ele>
        <time>2024-07-17T14:26:26.019Z</time>
      </trkpt>
      <trkpt lat="48.29452" lon="-4.17951">
        <ele>13</ele>
        <time>2024-07-17T14:26:30.488Z</time>
      </trkpt>
      <trkpt lat="48.29454" lon="-4.17954">
        <ele>13</ele>
        <time>2024-07-17T14:26:34.502Z</time>
      </trkpt>
      <trkpt lat="48.2946" lon="-4.17958">
        <ele>11</ele>
        <time>2024-07-17T14:26:38.922Z</time>
      </trkpt>
      <trkpt lat="48.29465" lon="-4.17963">
        <ele>12</ele>
        <time>2024-07-17T14:26:43.402Z</time>
      </trkpt>
      <trkpt lat="48.29469" lon="-4.17968">
        <ele>12</ele>
        <time>2024-07-17T14:26:47.579Z</time>
      </trkpt>
      <trkpt lat="48.29473" lon="-4.17974">
        <ele>12</ele>
        <time>2024-07-17T14:26:51.903Z</time>
      </trkpt>
      <trkpt lat="48.29477" lon="-4.17976">
        <ele>12</ele>
        <time>2024-07-17T14:26:56.618Z</time>
      </trkpt>
      <trkpt lat="48.29477" lon="-4.1798">
        <ele>12</ele>
        <time>2024-07-17T14:27:00.960Z</time>
      </trkpt>
      <trkpt lat="48.29478" lon="-4.17982">
        <ele>12</ele>
        <time>2024-07-17T14:27:05.204Z</time>
      </trkpt>
      <trkpt lat="48.29482" lon="-4.17973">
        <ele>12</ele>
        <time>2024-07-17T14:27:10.403Z</time>
      </trkpt>
      <trkpt lat="48.29488" lon="-4.17962">
        <ele>9</ele>
        <time>2024-07-17T14:27:15.405Z</time>
      </trkpt>
      <trkpt lat="48.29494" lon="-4.1797">
        <ele>9</ele>
        <time>2024-07-17T14:27:19.618Z</time>
      </trkpt>
      <trkpt lat="48.295" lon="-4.17982">
        <ele>9</ele>
        <time>2024-07-17T14:27:24.278Z</time>
      </trkpt>
      <trkpt lat="48.29506" lon="-4.17997">
        <ele>9</ele>
        <time>2024-07-17T14:27:28.618Z</time>
      </trkpt>
      <trkpt lat="48.29508" lon="-4.18002">
        <ele>9</ele>
        <time>2024-07-17T14:27:32.619Z</time>
      </trkpt>
      <trkpt lat="48.29512" lon="-4.18008">
        <ele>9</ele>
        <time>2024-07-17T14:27:37.618Z</time>
      </trkpt>
      <trkpt lat="48.29513" lon="-4.18007">
        <ele>9</ele>
        <time>2024-07-17T14:27:42.618Z</time>
      </trkpt>
      <trkpt lat="48.29513" lon="-4.18009">
        <ele>9</ele>
        <time>2024-07-17T14:27:46.725Z</time>
      </trkpt>
      <trkpt lat="48.29513" lon="-4.18009">
        <ele>9</ele>
        <time>2024-07-17T14:27:51.125Z</time>
      </trkpt>
      <trkpt lat="48.29521" lon="-4.1802">
        <ele>7</ele>
        <time>2024-07-17T14:27:55.565Z</time>
      </trkpt>
      <trkpt lat="48.29524" lon="-4.18024">
        <ele>7</ele>
        <time>2024-07-17T14:27:59.618Z</time>
      </trkpt>
      <trkpt lat="48.29528" lon="-4.18024">
        <ele>7</ele>
        <time>2024-07-17T14:28:03.618Z</time>
      </trkpt>
      <trkpt lat="48.29533" lon="-4.18028">
        <ele>7</ele>
        <time>2024-07-17T14:28:08.400Z</time>
      </trkpt>
      <trkpt lat="48.29538" lon="-4.18038">
        <ele>7</ele>
        <time>2024-07-17T14:28:12.618Z</time>
      </trkpt>
      <trkpt lat="48.29544" lon="-4.18045">
        <ele>7</ele>
        <time>2024-07-17T14:28:17.618Z</time>
      </trkpt>
      <trkpt lat="48.2955" lon="-4.18053">
        <ele>7</ele>
        <time>2024-07-17T14:28:22.618Z</time>
      </trkpt>
      <trkpt lat="48.29555" lon="-4.18058">
        <ele>7</ele>
        <time>2024-07-17T14:28:27.618Z</time>
      </trkpt>
      <trkpt lat="48.2956" lon="-4.18065">
        <ele>7</ele>
        <time>2024-07-17T14:28:32.218Z</time>
      </trkpt>
      <trkpt lat="48.29562" lon="-4.18065">
        <ele>7</ele>
        <time>2024-07-17T14:28:36.352Z</time>
      </trkpt>
      <trkpt lat="48.29561" lon="-4.18065">
        <ele>7</ele>
        <time>2024-07-17T14:28:40.465Z</time>
      </trkpt>
      <trkpt lat="48.29571" lon="-4.18076">
        <ele>5</ele>
        <time>2024-07-17T14:28:45.323Z</time>
      </trkpt>
      <trkpt lat="48.29576" lon="-4.18075">
        <ele>5</ele>
        <time>2024-07-17T14:28:49.618Z</time>
      </trkpt>
      <trkpt lat="48.29576" lon="-4.18078">
        <ele>5</ele>
        <time>2024-07-17T14:29:03.979Z</time>
      </trkpt>
      <trkpt lat="48.29578" lon="-4.18076">
        <ele>5</ele>
        <time>2024-07-17T14:29:08.618Z</time>
      </trkpt>
      <trkpt lat="48.29578" lon="-4.18076">
        <ele>5</ele>
        <time>2024-07-17T14:29:13.619Z</time>
      </trkpt>
      <trkpt lat="48.29582" lon="-4.1808">
        <ele>5</ele>
        <time>2024-07-17T14:29:18.540Z</time>
      </trkpt>
      <trkpt lat="48.29586" lon="-4.18089">
        <ele>5</ele>
        <time>2024-07-17T14:29:22.618Z</time>
      </trkpt>
      <trkpt lat="48.29589" lon="-4.18096">
        <ele>5</ele>
        <time>2024-07-17T14:29:27.143Z</time>
      </trkpt>
      <trkpt lat="48.29594" lon="-4.181">
        <ele>4</ele>
        <time>2024-07-17T14:29:31.618Z</time>
      </trkpt>
      <trkpt lat="48.29598" lon="-4.18103">
        <ele>2</ele>
        <time>2024-07-17T14:29:35.618Z</time>
      </trkpt>
      <trkpt lat="48.29604" lon="-4.181">
        <ele>2</ele>
        <time>2024-07-17T14:29:40.618Z</time>
      </trkpt>
      <trkpt lat="48.29604" lon="-4.181">
        <ele>2</ele>
        <time>2024-07-17T14:29:45.618Z</time>
      </trkpt>
      <trkpt lat="48.29604" lon="-4.181">
        <ele>2</ele>
        <time>2024-07-17T14:29:50.515Z</time>
      </trkpt>
      <trkpt lat="48.29613" lon="-4.18101">
        <ele>2</ele>
        <time>2024-07-17T14:29:54.618Z</time>
      </trkpt>
      <trkpt lat="48.29619" lon="-4.18101">
        <ele>2</ele>
        <time>2024-07-17T14:29:59.618Z</time>
      </trkpt>
      <trkpt lat="48.29622" lon="-4.181">
        <ele>2</ele>
        <time>2024-07-17T14:30:03.618Z</time>
      </trkpt>
      <trkpt lat="48.29626" lon="-4.18099">
        <ele>2</ele>
        <time>2024-07-17T14:30:08.618Z</time>
      </trkpt>
      <trkpt lat="48.29633" lon="-4.18098">
        <ele>2</ele>
        <time>2024-07-17T14:30:13.323Z</time>
      </trkpt>
      <trkpt lat="48.29637" lon="-4.18098">
        <ele>2</ele>
        <time>2024-07-17T14:30:17.618Z</time>
      </trkpt>
      <trkpt lat="48.2964" lon="-4.181">
        <ele>2</ele>
        <time>2024-07-17T14:30:57.643Z</time>
      </trkpt>
      <trkpt lat="48.29634" lon="-4.18099">
        <ele>2</ele>
        <time>2024-07-17T14:31:01.857Z</time>
      </trkpt>
      <trkpt lat="48.29627" lon="-4.181">
        <ele>2</ele>
        <time>2024-07-17T14:31:06.501Z</time>
      </trkpt>
      <trkpt lat="48.29622" lon="-4.181">
        <ele>2</ele>
        <time>2024-07-17T14:31:11.313Z</time>
      </trkpt>
      <trkpt lat="48.29617" lon="-4.18101">
        <ele>2</ele>
        <time>2024-07-17T14:31:15.520Z</time>
      </trkpt>
      <trkpt lat="48.29612" lon="-4.181">
        <ele>2</ele>
        <time>2024-07-17T14:31:19.832Z</time>
      </trkpt>
      <trkpt lat="48.29605" lon="-4.18101">
        <ele>2</ele>
        <time>2024-07-17T14:31:24.618Z</time>
      </trkpt>
      <trkpt lat="48.296" lon="-4.181">
        <ele>2</ele>
        <time>2024-07-17T14:31:28.618Z</time>
      </trkpt>
      <trkpt lat="48.29594" lon="-4.18102">
        <ele>4</ele>
        <time>2024-07-17T14:31:33.539Z</time>
      </trkpt>
      <trkpt lat="48.2959" lon="-4.18101">
        <ele>4</ele>
        <time>2024-07-17T14:31:37.618Z</time>
      </trkpt>
      <trkpt lat="48.29585" lon="-4.18097">
        <ele>4</ele>
        <time>2024-07-17T14:31:42.295Z</time>
      </trkpt>
      <trkpt lat="48.2958" lon="-4.18095">
        <ele>5</ele>
        <time>2024-07-17T14:31:46.617Z</time>
      </trkpt>
      <trkpt lat="48.2958" lon="-4.1809">
        <ele>5</ele>
        <time>2024-07-17T14:31:50.916Z</time>
      </trkpt>
      <trkpt lat="48.29577" lon="-4.18088">
        <ele>5</ele>
        <time>2024-07-17T14:31:55.617Z</time>
      </trkpt>
      <trkpt lat="48.29577" lon="-4.18089">
        <ele>5</ele>
        <time>2024-07-17T14:32:04.617Z</time>
      </trkpt>
      <trkpt lat="48.29577" lon="-4.18089">
        <ele>5</ele>
        <time>2024-07-17T14:32:10.031Z</time>
      </trkpt>
      <trkpt lat="48.29579" lon="-4.18086">
        <ele>5</ele>
        <time>2024-07-17T14:32:14.345Z</time>
      </trkpt>
      <trkpt lat="48.29584" lon="-4.18098">
        <ele>4</ele>
        <time>2024-07-17T14:32:18.816Z</time>
      </trkpt>
      <trkpt lat="48.29589" lon="-4.18106">
        <ele>4</ele>
        <time>2024-07-17T14:32:22.951Z</time>
      </trkpt>
      <trkpt lat="48.2959" lon="-4.18116">
        <ele>4</ele>
        <time>2024-07-17T14:32:27.618Z</time>
      </trkpt>
      <trkpt lat="48.2959" lon="-4.18125">
        <ele>4</ele>
        <time>2024-07-17T14:32:32.618Z</time>
      </trkpt>
      <trkpt lat="48.29589" lon="-4.18133">
        <ele>4</ele>
        <time>2024-07-17T14:32:36.759Z</time>
      </trkpt>
      <trkpt lat="48.29587" lon="-4.1814">
        <ele>4</ele>
        <time>2024-07-17T14:32:40.916Z</time>
      </trkpt>
      <trkpt lat="48.29583" lon="-4.18147">
        <ele>4</ele>
        <time>2024-07-17T14:32:45.140Z</time>
      </trkpt>
      <trkpt lat="48.29579" lon="-4.18152">
        <ele>4</ele>
        <time>2024-07-17T14:32:49.359Z</time>
      </trkpt>
      <trkpt lat="48.29574" lon="-4.18157">
        <ele>4</ele>
        <time>2024-07-17T14:32:53.617Z</time>
      </trkpt>
      <trkpt lat="48.29569" lon="-4.18159">
        <ele>6</ele>
        <time>2024-07-17T14:32:58.618Z</time>
      </trkpt>
      <trkpt lat="48.29565" lon="-4.18159">
        <ele>6</ele>
        <time>2024-07-17T14:33:02.617Z</time>
      </trkpt>
      <trkpt lat="48.29561" lon="-4.18152">
        <ele>6</ele>
        <time>2024-07-17T14:33:07.180Z</time>
      </trkpt>
      <trkpt lat="48.29558" lon="-4.1815">
        <ele>6</ele>
        <time>2024-07-17T14:33:11.436Z</time>
      </trkpt>
      <trkpt lat="48.29554" lon="-4.18153">
        <ele>6</ele>
        <time>2024-07-17T14:33:15.617Z</time>
      </trkpt>
      <trkpt lat="48.29552" lon="-4.1816">
        <ele>6</ele>
        <time>2024-07-17T14:33:19.774Z</time>
      </trkpt>
      <trkpt lat="48.2955" lon="-4.18168">
        <ele>6</ele>
        <time>2024-07-17T14:33:24.375Z</time>
      </trkpt>
      <trkpt lat="48.2955" lon="-4.18176">
        <ele>6</ele>
        <time>2024-07-17T14:33:28.617Z</time>
      </trkpt>
      <trkpt lat="48.2955" lon="-4.18185">
        <ele>6</ele>
        <time>2024-07-17T14:33:33.336Z</time>
      </trkpt>
      <trkpt lat="48.29551" lon="-4.18194">
        <ele>6</ele>
        <time>2024-07-17T14:33:37.617Z</time>
      </trkpt>
      <trkpt lat="48.29554" lon="-4.18203">
        <ele>6</ele>
        <time>2024-07-17T14:33:42.638Z</time>
      </trkpt>
      <trkpt lat="48.29555" lon="-4.18212">
        <ele>6</ele>
        <time>2024-07-17T14:33:47.617Z</time>
      </trkpt>
      <trkpt lat="48.29555" lon="-4.18221">
        <ele>6</ele>
        <time>2024-07-17T14:33:52.618Z</time>
      </trkpt>
      <trkpt lat="48.29556" lon="-4.18231">
        <ele>6</ele>
        <time>2024-07-17T14:33:57.099Z</time>
      </trkpt>
      <trkpt lat="48.29558" lon="-4.18236">
        <ele>6</ele>
        <time>2024-07-17T14:34:01.152Z</time>
      </trkpt>
      <trkpt lat="48.29561" lon="-4.18244">
        <ele>6</ele>
        <time>2024-07-17T14:34:05.513Z</time>
      </trkpt>
      <trkpt lat="48.2956" lon="-4.18251">
        <ele>6</ele>
        <time>2024-07-17T14:34:10.030Z</time>
      </trkpt>
      <trkpt lat="48.2956" lon="-4.1826">
        <ele>6</ele>
        <time>2024-07-17T14:34:14.219Z</time>
      </trkpt>
      <trkpt lat="48.29559" lon="-4.18268">
        <ele>5</ele>
        <time>2024-07-17T14:34:18.796Z</time>
      </trkpt>
      <trkpt lat="48.29559" lon="-4.18274">
        <ele>5</ele>
        <time>2024-07-17T14:34:23.055Z</time>
      </trkpt>
      <trkpt lat="48.2956" lon="-4.18278">
        <ele>5</ele>
        <time>2024-07-17T14:34:25.973Z</time>
      </trkpt>
      <trkpt lat="48.29559" lon="-4.1828">
        <ele>5</ele>
        <time>2024-07-17T14:34:35.617Z</time>
      </trkpt>
      <trkpt lat="48.29559" lon="-4.18286">
        <ele>5</ele>
        <time>2024-07-17T14:34:40.543Z</time>
      </trkpt>
      <trkpt lat="48.29558" lon="-4.183">
        <ele>4</ele>
        <time>2024-07-17T14:34:44.702Z</time>
      </trkpt>
      <trkpt lat="48.29558" lon="-4.18309">
        <ele>4</ele>
        <time>2024-07-17T14:34:49.536Z</time>
      </trkpt>
      <trkpt lat="48.29557" lon="-4.18319">
        <ele>4</ele>
        <time>2024-07-17T14:34:53.617Z</time>
      </trkpt>
      <trkpt lat="48.29556" lon="-4.18329">
        <ele>3</ele>
        <time>2024-07-17T14:34:58.618Z</time>
      </trkpt>
      <trkpt lat="48.29555" lon="-4.1834">
        <ele>3</ele>
        <time>2024-07-17T14:35:03.482Z</time>
      </trkpt>
      <trkpt lat="48.29555" lon="-4.18351">
        <ele>3</ele>
        <time>2024-07-17T14:35:08.398Z</time>
      </trkpt>
      <trkpt lat="48.29554" lon="-4.1836">
        <ele>3</ele>
        <time>2024-07-17T14:35:12.424Z</time>
      </trkpt>
      <trkpt lat="48.29554" lon="-4.18371">
        <ele>3</ele>
        <time>2024-07-17T14:35:17.487Z</time>
      </trkpt>
      <trkpt lat="48.29553" lon="-4.18381">
        <ele>2</ele>
        <time>2024-07-17T14:35:22.445Z</time>
      </trkpt>
      <trkpt lat="48.29553" lon="-4.18393">
        <ele>2</ele>
        <time>2024-07-17T14:35:27.459Z</time>
      </trkpt>
      <trkpt lat="48.29552" lon="-4.18401">
        <ele>2</ele>
        <time>2024-07-17T14:35:31.544Z</time>
      </trkpt>
      <trkpt lat="48.29551" lon="-4.18411">
        <ele>3</ele>
        <time>2024-07-17T14:35:36.617Z</time>
      </trkpt>
      <trkpt lat="48.29552" lon="-4.18422">
        <ele>3</ele>
        <time>2024-07-17T14:35:41.405Z</time>
      </trkpt>
      <trkpt lat="48.2955" lon="-4.18431">
        <ele>2</ele>
        <time>2024-07-17T14:35:45.814Z</time>
      </trkpt>
      <trkpt lat="48.29549" lon="-4.18442">
        <ele>2</ele>
        <time>2024-07-17T14:35:50.415Z</time>
      </trkpt>
      <trkpt lat="48.29549" lon="-4.18449">
        <ele>2</ele>
        <time>2024-07-17T14:35:54.596Z</time>
      </trkpt>
      <trkpt lat="48.29549" lon="-4.18456">
        <ele>2</ele>
        <time>2024-07-17T14:35:58.721Z</time>
      </trkpt>
      <trkpt lat="48.29548" lon="-4.18464">
        <ele>3</ele>
        <time>2024-07-17T14:36:02.901Z</time>
      </trkpt>
      <trkpt lat="48.29547" lon="-4.18474">
        <ele>2.9</ele>
        <time>2024-07-17T14:36:07.460Z</time>
      </trkpt>
      <trkpt lat="48.29544" lon="-4.18481">
        <ele>3.1</ele>
        <time>2024-07-17T14:36:11.647Z</time>
      </trkpt>
      <trkpt lat="48.29539" lon="-4.18488">
        <ele>1</ele>
        <time>2024-07-17T14:36:16.260Z</time>
      </trkpt>
      <trkpt lat="48.29537" lon="-4.18494">
        <ele>1</ele>
        <time>2024-07-17T14:36:20.413Z</time>
      </trkpt>
      <trkpt lat="48.29532" lon="-4.185">
        <ele>1</ele>
        <time>2024-07-17T14:36:24.536Z</time>
      </trkpt>
      <trkpt lat="48.29531" lon="-4.18507">
        <ele>1</ele>
        <time>2024-07-17T14:36:28.617Z</time>
      </trkpt>
      <trkpt lat="48.29527" lon="-4.18511">
        <ele>1</ele>
        <time>2024-07-17T14:36:32.676Z</time>
      </trkpt>
    </trkseg>
  </trk>
</gpx>